createdAt,value
2023-07-03T00:01:04.896Z,27.05
2023-07-03T00:03:32.831Z,27.04
2023-07-03T00:06:01.883Z,27.04
2023-07-03T00:08:29.976Z,27.04
2023-07-03T00:11:02.634Z,27.03
2023-07-03T00:13:30.573Z,27.02
2023-07-03T00:16:01.929Z,27.02
2023-07-03T00:18:30.791Z,27.02
2023-07-03T00:20:58.788Z,27.01
2023-07-03T00:23:27.368Z,26.99
2023-07-03T00:25:55.701Z,27.01
2023-07-03T00:28:25.370Z,27.01
2023-07-03T00:30:53.391Z,27.01
2023-07-03T00:33:22.271Z,27.00
2023-07-03T00:35:50.533Z,27.00
2023-07-03T00:38:18.935Z,27.00
2023-07-03T00:40:46.921Z,27.00
2023-07-03T00:43:15.449Z,27.00
2023-07-03T00:45:44.953Z,26.98
2023-07-03T00:48:13.214Z,26.99
2023-07-03T00:50:41.564Z,27.00
2023-07-03T00:53:12.684Z,26.98
2023-07-03T00:55:42.892Z,26.97
2023-07-03T00:58:11.114Z,26.97
2023-07-03T01:00:44.475Z,26.98
2023-07-03T01:03:17.789Z,26.97
2023-07-03T01:05:49.054Z,26.88
2023-07-03T01:08:17.714Z,26.96
2023-07-03T01:10:45.684Z,26.97
2023-07-03T01:13:15.298Z,26.97
2023-07-03T01:15:44.286Z,26.97
2023-07-03T01:18:13.909Z,26.98
2023-07-03T01:20:44.571Z,26.96
2023-07-03T01:23:16.211Z,26.97
2023-07-03T01:25:45.591Z,26.97
2023-07-03T01:28:14.672Z,26.97
2023-07-03T01:30:42.918Z,26.94
2023-07-03T01:33:12.970Z,26.88
2023-07-03T01:35:40.924Z,26.95
2023-07-03T01:38:09.163Z,26.95
2023-07-03T01:40:37.129Z,26.94
2023-07-03T01:43:06.430Z,26.96
2023-07-03T01:45:35.980Z,26.94
2023-07-03T01:48:04.418Z,26.94
2023-07-03T01:50:32.835Z,26.93
2023-07-03T01:53:02.039Z,26.94
2023-07-03T01:55:34.181Z,26.94
2023-07-03T01:58:04.885Z,26.94
2023-07-03T02:00:37.090Z,26.93
2023-07-03T02:03:07.500Z,26.95
2023-07-03T02:05:35.563Z,26.92
2023-07-03T02:08:03.779Z,26.93
2023-07-03T02:10:31.815Z,26.93
2023-07-03T02:12:59.769Z,26.93
2023-07-03T02:15:27.730Z,26.93
2023-07-03T02:17:58.318Z,26.93
2023-07-03T02:20:26.274Z,26.92
2023-07-03T02:22:54.236Z,26.92
2023-07-03T02:25:22.369Z,26.93
2023-07-03T02:27:51.455Z,26.92
2023-07-03T02:30:19.462Z,26.93
2023-07-03T02:32:47.529Z,26.93
2023-07-03T02:35:17.054Z,26.93
2023-07-03T02:37:45.284Z,26.94
2023-07-03T02:40:14.956Z,26.94
2023-07-03T02:42:43.009Z,26.92
2023-07-03T02:45:11.168Z,26.93
2023-07-03T02:47:39.523Z,26.92
2023-07-03T02:50:08.604Z,26.92
2023-07-03T02:52:38.000Z,26.91
2023-07-03T02:55:06.492Z,26.92
2023-07-03T02:57:34.783Z,26.91
2023-07-03T03:00:02.786Z,26.92
2023-07-03T03:02:30.843Z,26.92
2023-07-03T03:04:58.968Z,26.91
2023-07-03T03:07:27.417Z,26.92
2023-07-03T03:09:56.776Z,26.91
2023-07-03T03:12:24.812Z,26.92
2023-07-03T03:14:52.997Z,26.92
2023-07-03T03:17:21.318Z,26.90
2023-07-03T03:19:49.697Z,26.91
2023-07-03T03:22:17.611Z,26.89
2023-07-03T03:24:45.669Z,26.91
2023-07-03T03:27:17.077Z,26.91
2023-07-03T03:29:45.633Z,26.91
2023-07-03T03:32:13.575Z,26.91
2023-07-03T03:34:41.535Z,26.91
2023-07-03T03:37:09.823Z,26.91
2023-07-03T03:39:37.768Z,26.90
2023-07-03T03:42:06.416Z,26.91
2023-07-03T03:44:35.932Z,26.91
2023-07-03T03:47:04.288Z,26.91
2023-07-03T03:49:33.085Z,26.91
2023-07-03T03:52:01.082Z,26.91
2023-07-03T03:54:28.984Z,26.90
2023-07-03T03:56:56.912Z,26.91
2023-07-03T03:59:24.943Z,26.93
2023-07-03T04:01:54.333Z,26.92
2023-07-03T04:04:22.463Z,26.93
2023-07-03T04:06:50.574Z,26.93
2023-07-03T04:09:18.555Z,26.93
2023-07-03T04:11:46.515Z,26.92
2023-07-03T04:14:16.244Z,26.92
2023-07-03T04:16:44.578Z,26.93
2023-07-03T04:19:15.482Z,26.93
2023-07-03T04:21:43.606Z,26.92
2023-07-03T04:24:11.561Z,26.93
2023-07-03T04:26:41.410Z,26.92
2023-07-03T04:29:09.372Z,26.93
2023-07-03T04:31:37.475Z,26.93
2023-07-03T04:34:07.043Z,26.93
2023-07-03T04:36:36.606Z,26.93
2023-07-03T04:39:05.032Z,26.92
2023-07-03T04:41:32.995Z,26.93
2023-07-03T04:44:02.287Z,26.92
2023-07-03T04:46:30.638Z,26.93
2023-07-03T04:49:01.193Z,26.92
2023-07-03T04:51:31.771Z,26.92
2023-07-03T04:54:01.970Z,26.92
2023-07-03T04:56:30.247Z,26.93
2023-07-03T04:58:58.216Z,26.92
2023-07-03T05:01:26.375Z,26.92
2023-07-03T05:03:54.378Z,26.93
2023-07-03T05:06:22.647Z,26.92
2023-07-03T05:08:50.771Z,26.92
2023-07-03T05:11:20.142Z,26.93
2023-07-03T05:13:48.109Z,26.93
2023-07-03T05:16:16.371Z,26.93
2023-07-03T05:18:44.364Z,26.90
2023-07-03T05:21:12.551Z,26.94
2023-07-03T05:23:40.504Z,26.93
2023-07-03T05:26:08.691Z,26.93
2023-07-03T05:28:38.641Z,26.94
2023-07-03T05:31:06.632Z,26.94
2023-07-03T05:33:34.634Z,26.93
2023-07-03T05:36:03.566Z,26.93
2023-07-03T05:38:31.640Z,26.94
2023-07-03T05:40:59.626Z,26.93
2023-07-03T05:43:28.166Z,26.94
2023-07-03T05:45:57.462Z,26.94
2023-07-03T05:48:25.962Z,26.94
2023-07-03T05:50:53.872Z,26.94
2023-07-03T05:53:22.694Z,26.93
2023-07-03T05:55:56.487Z,26.93
2023-07-03T05:58:24.956Z,26.93
2023-07-03T06:00:53.140Z,26.93
2023-07-03T06:03:25.840Z,26.94
2023-07-03T06:05:54.367Z,26.94
2023-07-03T06:08:22.916Z,26.93
2023-07-03T06:10:50.854Z,26.83
2023-07-03T06:13:18.812Z,26.93
2023-07-03T06:15:46.878Z,26.94
2023-07-03T06:18:16.074Z,26.94
2023-07-03T06:20:45.365Z,26.94
2023-07-03T06:23:13.487Z,26.94
2023-07-03T06:25:41.886Z,26.94
2023-07-03T06:28:10.233Z,26.95
2023-07-03T06:30:38.232Z,26.95
2023-07-03T06:33:06.256Z,26.94
2023-07-03T06:35:34.889Z,26.95
2023-07-03T06:38:04.763Z,26.93
2023-07-03T06:40:32.719Z,26.96
2023-07-03T06:43:03.498Z,26.96
2023-07-03T06:45:31.437Z,26.97
2023-07-03T06:47:59.876Z,26.98
2023-07-03T06:50:27.904Z,26.98
2023-07-03T06:52:55.812Z,26.98
2023-07-03T06:55:25.210Z,26.98
2023-07-03T06:57:53.503Z,26.99
2023-07-03T07:00:22.053Z,26.98
2023-07-03T07:02:50.189Z,26.98
2023-07-03T07:05:18.197Z,26.99
2023-07-03T07:07:46.477Z,26.98
2023-07-03T07:10:14.417Z,26.98
2023-07-03T07:12:43.778Z,26.99
2023-07-03T07:15:12.430Z,27.00
2023-07-03T07:17:50.344Z,26.99
2023-07-03T07:20:19.477Z,27.00
2023-07-03T07:22:47.494Z,26.97
2023-07-03T07:25:15.626Z,27.00
2023-07-03T07:27:45.271Z,26.99
2023-07-03T07:30:14.395Z,27.00
2023-07-03T07:32:42.399Z,27.01
2023-07-03T07:35:10.668Z,26.99
2023-07-03T07:37:39.011Z,27.00
2023-07-03T07:40:08.308Z,27.01
2023-07-03T07:42:36.272Z,27.00
2023-07-03T07:45:08.652Z,27.00
2023-07-03T07:47:37.207Z,27.00
2023-07-03T07:50:05.863Z,27.01
2023-07-03T07:52:33.859Z,27.01
2023-07-03T07:55:01.821Z,27.01
2023-07-03T07:57:31.387Z,27.01
2023-07-03T07:59:59.465Z,27.01
2023-07-03T08:02:28.990Z,27.01
2023-07-03T08:04:58.764Z,27.02
2023-07-03T08:07:27.248Z,27.01
2023-07-03T08:09:55.255Z,27.03
2023-07-03T08:12:23.208Z,27.02
2023-07-03T08:14:51.243Z,27.02
2023-07-03T08:17:19.586Z,27.02
2023-07-03T08:19:48.983Z,27.01
2023-07-03T08:22:17.006Z,27.01
2023-07-03T08:24:44.960Z,27.02
2023-07-03T08:27:12.905Z,27.00
2023-07-03T08:29:40.888Z,26.99
2023-07-03T08:32:11.278Z,27.01
2023-07-03T08:34:39.633Z,27.02
2023-07-03T08:37:09.574Z,27.02
2023-07-03T08:39:40.106Z,27.03
2023-07-03T08:42:13.485Z,27.03
2023-07-03T08:44:41.404Z,27.03
2023-07-03T08:47:12.541Z,27.04
2023-07-03T08:49:41.074Z,27.04
2023-07-03T08:52:10.598Z,27.04
2023-07-03T08:54:39.227Z,27.04
2023-07-03T08:57:07.990Z,27.04
2023-07-03T08:59:36.628Z,27.03
2023-07-03T09:02:07.776Z,27.01
2023-07-03T09:04:42.418Z,27.02
2023-07-03T09:07:12.666Z,27.02
2023-07-03T09:09:43.194Z,27.02
2023-07-03T09:12:15.396Z,27.02
2023-07-03T09:14:45.784Z,27.02
2023-07-03T09:17:13.835Z,27.02
2023-07-03T09:19:45.633Z,27.02
2023-07-03T09:22:18.868Z,27.03
2023-07-03T09:24:46.856Z,27.01
2023-07-03T09:27:19.796Z,27.03
2023-07-03T09:29:48.730Z,27.02
2023-07-03T09:32:25.405Z,27.02
2023-07-03T09:35:08.609Z,27.03
2023-07-03T09:37:39.855Z,27.02
2023-07-03T09:40:11.095Z,27.03
2023-07-03T09:42:39.211Z,27.02
2023-07-03T09:45:15.132Z,27.03
2023-07-03T09:47:43.603Z,27.02
2023-07-03T09:50:13.343Z,27.02
2023-07-03T09:52:59.517Z,27.02
2023-07-03T09:55:34.565Z,27.02
2023-07-03T09:58:14.620Z,27.01
2023-07-03T10:00:48.949Z,27.02
2023-07-03T10:08:30.713Z,27.01
2023-07-03T10:13:34.417Z,27.00
2023-07-03T10:16:02.379Z,27.02
2023-07-03T10:18:33.489Z,26.99
2023-07-03T10:21:02.799Z,27.01
2023-07-03T10:23:33.317Z,27.02
2023-07-03T10:26:05.809Z,27.01
2023-07-03T10:28:36.862Z,27.01
2023-07-03T10:31:06.436Z,27.01
2023-07-03T10:33:36.018Z,27.02
2023-07-03T10:36:05.785Z,27.02
2023-07-03T10:38:38.854Z,27.01
2023-07-03T10:41:09.852Z,27.02
2023-07-03T10:43:40.504Z,27.02
2023-07-03T10:46:09.121Z,27.02
2023-07-03T10:48:37.184Z,26.92
2023-07-03T10:51:08.860Z,27.03
2023-07-03T10:53:40.473Z,27.03
2023-07-03T10:56:10.850Z,27.02
2023-07-03T10:58:41.034Z,27.02
2023-07-03T11:01:13.004Z,26.99
2023-07-03T11:03:44.249Z,27.02
2023-07-03T11:06:15.007Z,26.86
2023-07-03T11:08:47.846Z,27.03
2023-07-03T11:11:19.727Z,27.04
2023-07-03T11:13:50.883Z,27.03
2023-07-03T11:16:20.704Z,27.04
2023-07-03T11:24:10.857Z,27.02
2023-07-03T11:29:13.117Z,27.02
2023-07-03T11:31:43.714Z,27.03
2023-07-03T11:36:51.200Z,27.01
2023-07-03T11:44:45.882Z,27.03
2023-07-03T11:47:15.424Z,27.04
2023-07-03T11:49:45.193Z,27.04
2023-07-03T11:52:13.961Z,27.03
2023-07-03T11:54:43.336Z,27.03
2023-07-03T11:57:12.510Z,27.04
2023-07-03T11:59:41.061Z,27.04
2023-07-03T12:02:43.208Z,27.06
2023-07-03T12:05:11.571Z,27.05
2023-07-03T12:07:51.846Z,27.06
2023-07-03T12:10:48.232Z,27.05
2023-07-03T12:13:46.596Z,27.04
2023-07-03T12:16:16.410Z,27.04
2023-07-03T12:18:44.467Z,27.03
2023-07-03T12:21:12.674Z,27.03
2023-07-03T12:23:41.524Z,27.03
2023-07-03T12:26:13.682Z,27.02
2023-07-03T12:28:42.305Z,26.99
2023-07-03T12:31:12.122Z,27.03
2023-07-03T12:33:51.104Z,27.03
2023-07-03T12:36:26.392Z,27.02
2023-07-03T12:38:54.502Z,27.03
2023-07-03T12:41:31.306Z,27.02
2023-07-03T12:44:07.995Z,27.02
2023-07-03T12:46:41.805Z,27.02
2023-07-03T12:49:11.320Z,27.02
2023-07-03T12:51:44.619Z,27.03
2023-07-03T12:54:13.525Z,27.02
2023-07-03T12:56:43.538Z,27.02
2023-07-03T12:59:12.816Z,26.96
2023-07-03T13:01:41.749Z,27.02
2023-07-03T13:04:10.939Z,27.02
2023-07-03T13:06:38.935Z,27.02
2023-07-03T13:09:07.739Z,27.02
2023-07-03T13:11:37.685Z,27.02
2023-07-03T13:14:15.624Z,27.01
2023-07-03T13:16:44.526Z,27.03
2023-07-03T13:19:12.596Z,27.03
2023-07-03T13:21:40.971Z,27.03
2023-07-03T13:24:11.603Z,27.03
2023-07-03T13:26:39.921Z,27.04
2023-07-03T13:29:08.111Z,27.04
2023-07-03T13:31:50.719Z,27.04
2023-07-03T13:34:21.821Z,27.04
2023-07-03T13:36:52.289Z,27.04
2023-07-03T13:39:30.256Z,27.05
2023-07-03T13:41:58.258Z,27.04
2023-07-03T13:44:26.451Z,27.04
2023-07-03T13:46:56.654Z,27.05
2023-07-03T13:49:24.646Z,27.06
2023-07-03T13:51:52.999Z,27.07
2023-07-03T13:54:20.964Z,27.07
2023-07-03T13:56:49.292Z,27.08
2023-07-03T13:59:17.221Z,27.08
2023-07-03T14:01:45.354Z,27.07
2023-07-03T14:04:15.544Z,27.08
2023-07-03T14:06:43.987Z,27.08
2023-07-03T14:09:11.971Z,27.07
2023-07-03T14:11:40.299Z,27.09
2023-07-03T14:14:09.962Z,27.08
2023-07-03T14:16:38.296Z,27.07
2023-07-03T14:19:07.380Z,27.06
2023-07-03T14:21:37.151Z,27.07
2023-07-03T14:24:05.647Z,27.08
2023-07-03T14:26:33.983Z,26.97
2023-07-03T14:29:01.985Z,27.07
2023-07-03T14:31:30.049Z,27.07
2023-07-03T14:33:58.085Z,27.06
2023-07-03T14:36:26.691Z,27.07
2023-07-03T14:38:56.369Z,27.07
2023-07-03T14:41:24.333Z,27.06
2023-07-03T14:43:52.314Z,27.07
2023-07-03T14:46:20.762Z,27.03
2023-07-03T14:48:48.786Z,27.08
2023-07-03T14:51:16.689Z,27.07
2023-07-03T14:53:45.057Z,27.07
2023-07-03T14:56:14.379Z,27.08
2023-07-03T14:58:42.308Z,27.07
2023-07-03T15:01:10.408Z,27.07
2023-07-03T15:03:38.500Z,27.06
2023-07-03T15:06:09.895Z,27.07
2023-07-03T15:08:37.946Z,27.07
2023-07-03T15:11:05.903Z,27.08
2023-07-03T15:13:35.251Z,27.08
2023-07-03T15:16:03.207Z,27.07
2023-07-03T15:18:31.281Z,27.06
2023-07-03T15:20:59.274Z,27.07
2023-07-03T15:23:27.267Z,27.07
2023-07-03T15:25:55.193Z,27.07
2023-07-03T15:28:23.458Z,27.07
2023-07-03T15:30:53.404Z,27.08
2023-07-03T15:33:21.419Z,27.07
2023-07-03T15:35:55.644Z,27.07
2023-07-03T15:38:23.628Z,27.07
2023-07-03T15:40:54.497Z,27.06
2023-07-03T15:43:22.480Z,27.06
2023-07-03T15:46:02.990Z,27.07
2023-07-03T15:48:31.043Z,27.07
2023-07-03T15:50:59.154Z,27.06
2023-07-03T15:53:27.182Z,27.06
2023-07-03T15:56:01.607Z,27.06
2023-07-03T15:58:30.763Z,27.07
2023-07-03T16:01:00.930Z,27.06
2023-07-03T16:03:29.056Z,27.06
2023-07-03T16:05:57.909Z,27.06
2023-07-03T16:08:26.298Z,27.07
2023-07-03T16:10:54.292Z,27.05
2023-07-03T16:13:30.391Z,27.08
2023-07-03T16:16:05.486Z,27.06
2023-07-03T16:18:33.888Z,27.07
2023-07-03T16:21:02.025Z,27.07
2023-07-03T16:23:30.492Z,27.08
2023-07-03T16:26:02.625Z,27.07
2023-07-03T16:28:33.656Z,27.07
2023-07-03T16:31:04.877Z,27.02
2023-07-03T16:33:33.801Z,27.07
2023-07-03T16:36:03.317Z,27.07
2023-07-03T16:38:31.344Z,27.08
2023-07-03T16:41:01.437Z,27.09
2023-07-03T16:43:30.550Z,27.09
2023-07-03T16:46:00.213Z,27.11
2023-07-03T16:48:29.939Z,27.11
2023-07-03T16:50:59.813Z,27.12
2023-07-03T16:53:28.480Z,27.13
2023-07-03T16:56:02.803Z,27.13
2023-07-03T16:58:30.826Z,27.14
2023-07-03T17:00:59.219Z,27.15
2023-07-03T17:03:27.316Z,27.15
2023-07-03T17:05:56.762Z,27.14
2023-07-03T17:08:27.689Z,27.14
2023-07-03T17:10:56.030Z,27.15
2023-07-03T17:13:23.998Z,27.15
2023-07-03T17:15:52.193Z,27.15
2023-07-03T17:18:22.155Z,27.15
2023-07-03T17:20:50.057Z,27.16
2023-07-03T17:23:19.415Z,27.15
2023-07-03T17:25:47.329Z,27.14
2023-07-03T17:28:15.819Z,27.14
2023-07-03T17:30:43.969Z,27.14
2023-07-03T17:33:12.232Z,27.14
2023-07-03T17:35:40.929Z,27.15
2023-07-03T17:38:10.150Z,27.16
2023-07-03T17:40:40.715Z,27.15
2023-07-03T17:43:08.676Z,27.15
2023-07-03T17:45:36.718Z,27.14
2023-07-03T17:48:05.394Z,27.13
2023-07-03T17:50:33.514Z,27.12
2023-07-03T17:53:01.800Z,27.13
2023-07-03T17:55:31.783Z,27.12
2023-07-03T17:58:02.911Z,27.11
2023-07-03T18:00:30.878Z,27.10
2023-07-03T18:03:00.612Z,27.03
2023-07-03T18:05:30.204Z,27.07
2023-07-03T18:07:58.501Z,27.02
2023-07-03T18:10:26.528Z,27.13
2023-07-03T18:12:54.881Z,27.12
2023-07-03T18:15:32.377Z,27.12
2023-07-03T18:18:07.719Z,27.12
2023-07-03T18:20:35.664Z,27.13
2023-07-03T18:23:03.577Z,27.12
2023-07-03T18:25:31.911Z,27.13
2023-07-03T18:28:00.263Z,27.12
2023-07-03T18:30:29.693Z,27.12
2023-07-03T18:32:57.792Z,27.11
2023-07-03T18:35:25.800Z,27.10
2023-07-03T18:37:54.340Z,27.10
2023-07-03T18:40:22.466Z,27.10
2023-07-03T18:42:50.599Z,27.09
2023-07-03T18:45:18.546Z,27.09
2023-07-03T18:47:47.995Z,27.08
2023-07-03T18:50:16.108Z,27.08
2023-07-03T18:52:44.045Z,27.08
2023-07-03T18:55:12.017Z,27.07
2023-07-03T18:57:40.323Z,27.08
2023-07-03T19:00:11.123Z,27.07
2023-07-03T19:02:39.339Z,27.07
2023-07-03T19:05:09.816Z,27.07
2023-07-03T19:07:37.720Z,27.06
2023-07-03T19:12:37.455Z,27.07
2023-07-03T19:15:07.922Z,27.08
2023-07-03T19:17:35.905Z,27.07
2023-07-03T19:20:04.296Z,27.06
2023-07-03T19:22:34.090Z,27.07
2023-07-03T19:25:02.073Z,27.07
2023-07-03T19:27:30.477Z,27.06
2023-07-03T19:29:58.417Z,27.05
2023-07-03T19:32:26.768Z,27.05
2023-07-03T19:34:54.801Z,27.06
2023-07-03T19:37:23.103Z,27.05
2023-07-03T19:39:52.464Z,27.05
2023-07-03T19:42:20.435Z,27.05
2023-07-03T19:44:48.355Z,27.05
2023-07-03T19:47:16.855Z,27.05
2023-07-03T19:49:44.926Z,27.05
2023-07-03T19:52:13.191Z,27.05
2023-07-03T19:54:41.297Z,27.04
2023-07-03T19:57:11.335Z,27.04
2023-07-03T19:59:39.330Z,27.05
2023-07-03T20:02:07.738Z,27.07
2023-07-03T20:04:35.802Z,27.05
2023-07-03T20:07:04.130Z,27.06
2023-07-03T20:09:32.446Z,27.06
2023-07-03T20:12:00.422Z,27.06
2023-07-03T20:14:29.905Z,27.05
2023-07-03T20:16:58.381Z,27.04
2023-07-03T20:19:26.377Z,27.05
2023-07-03T20:21:54.327Z,27.06
2023-07-03T20:24:22.740Z,27.06
2023-07-03T20:26:51.787Z,27.06
2023-07-03T20:29:19.983Z,27.05
2023-07-03T20:31:51.362Z,27.06
2023-07-03T20:34:19.407Z,27.06
2023-07-03T20:36:49.654Z,27.06
2023-07-03T20:39:17.587Z,27.06
2023-07-03T20:41:45.703Z,27.06
2023-07-03T20:44:15.788Z,27.06
2023-07-03T20:46:43.820Z,27.04
2023-07-03T20:49:13.151Z,27.04
2023-07-03T20:51:41.469Z,27.04
2023-07-03T20:54:23.074Z,27.04
2023-07-03T20:56:50.997Z,27.04
2023-07-03T20:59:18.957Z,27.03
2023-07-03T21:01:46.973Z,27.03
2023-07-03T21:04:16.302Z,27.04
2023-07-03T21:06:44.663Z,27.04
2023-07-03T21:09:12.709Z,27.03
2023-07-03T21:11:43.865Z,27.03
2023-07-03T21:14:12.591Z,27.02
2023-07-03T21:16:41.310Z,27.03
2023-07-03T21:19:09.507Z,27.03
2023-07-03T21:21:39.010Z,27.02
2023-07-03T21:24:09.042Z,27.02
2023-07-03T21:26:37.301Z,27.02
2023-07-03T21:29:05.649Z,27.01
2023-07-03T21:31:35.089Z,27.02
2023-07-03T21:34:03.153Z,27.01
2023-07-03T21:36:31.947Z,27.01
2023-07-03T21:39:01.988Z,27.00
2023-07-03T21:41:31.770Z,27.00
2023-07-03T21:44:02.043Z,27.00
2023-07-03T21:46:31.545Z,27.01
2023-07-03T21:48:59.742Z,27.01
2023-07-03T21:51:28.614Z,27.00
2023-07-03T21:53:56.636Z,27.01
2023-07-03T21:56:29.054Z,27.01
2023-07-03T21:58:58.728Z,27.01
2023-07-03T22:01:29.511Z,27.01
2023-07-03T22:03:58.535Z,27.01
2023-07-03T22:06:28.299Z,27.01
2023-07-03T22:08:56.718Z,27.01
2023-07-03T22:11:26.246Z,27.01
2023-07-03T22:13:54.596Z,27.02
2023-07-03T22:16:23.393Z,27.01
2023-07-03T22:18:51.517Z,27.00
2023-07-03T22:21:20.100Z,27.00
2023-07-03T22:23:48.864Z,27.01
2023-07-03T22:26:17.325Z,27.01
2023-07-03T22:28:46.860Z,27.00
2023-07-03T22:31:15.022Z,27.00
2023-07-03T22:33:43.052Z,26.97
2023-07-03T22:36:11.768Z,27.00
2023-07-03T22:38:39.846Z,27.00
2023-07-03T22:41:07.852Z,27.00
2023-07-03T22:43:37.140Z,26.99
2023-07-03T22:46:07.398Z,27.00
2023-07-03T22:48:35.786Z,26.99
2023-07-03T22:51:03.906Z,26.99
2023-07-03T22:53:32.225Z,27.00
2023-07-03T22:56:00.244Z,26.98
2023-07-03T22:58:28.665Z,26.98
2023-07-03T23:00:56.759Z,26.98
2023-07-03T23:03:26.154Z,26.97
2023-07-03T23:05:54.292Z,26.98
2023-07-03T23:08:25.270Z,26.97
2023-07-03T23:10:53.875Z,26.88
2023-07-03T23:13:22.484Z,27.00
2023-07-03T23:16:01.717Z,26.97
2023-07-03T23:18:31.138Z,26.98
2023-07-03T23:21:00.505Z,26.98
2023-07-03T23:23:31.399Z,26.98
2023-07-03T23:26:02.179Z,26.98
2023-07-03T23:28:32.661Z,26.97
2023-07-03T23:31:01.949Z,26.97
2023-07-03T23:33:31.362Z,26.98
2023-07-03T23:35:59.448Z,26.97
2023-07-03T23:38:27.839Z,26.97
2023-07-03T23:40:56.009Z,26.97
2023-07-03T23:43:24.357Z,26.97
2023-07-03T23:45:53.576Z,26.97
2023-07-03T23:48:22.141Z,26.97
2023-07-03T23:50:54.941Z,26.97
2023-07-03T23:53:23.287Z,26.97
2023-07-03T23:55:52.369Z,26.97
2023-07-03T23:58:22.859Z,26.94
